x

Edisto - 41 Nm Southeast Of Charleston, Sc (41004) Wave Buoy

7:50am - Mon 22nd Sep 2014 All times are EDT. -4 hours from GMT.

  • Sig Wave height 4.6ft
  • Swell Direction
  • Peak Period 5s
  • Average Period 5s
  • Wind
    18mph, 20mph gusts
  • Sea Temp 82°f
  • Air Temp 81°f
  • Sea Pressure 1015mb
  • Edisto - 41 Nm Southeast Of Charleston, Sc
  • Edisto - 41 Nm Southeast Of Charleston, Sc

More Historic Weather Station data

Upgrade to MSW Pro to gain access to the past 30 days of data for over 8000 Wavebouys and Weather Stations around the globe.

Join Pro

Comparision Forecast

View Surf forecast
   
Mon 09/22 7:50am 4.5ft 5s 5s 18 20 mph 1015mb 82f 81f
6:50am 4.5ft 6s 5s 18 20 mph 1014.5mb 82f 81f
5:50am 4.5ft 6s 5s 18 22 mph 1013.7mb 82f 82f
4:50am 4.5ft 5s 4s 20 22 mph 1013.2mb 82f 82f
3:50am 4.5ft 5s 5s 20 25 mph 1013.3mb 82f 82f
2:50am 4ft 5s 4s 20 22 mph 1013.6mb 82f 82f
1:50am 3.5ft 4s 4s 18 22 mph 1013.8mb 82f 81f
12:50am 3.5ft 4s 5s 20 22 mph 1014mb 82f 81f
Sun 09/21 11:50pm 3.5ft 4s 5s 18 22 mph 1014.1mb 82f 81f
10:50pm 3.5ft 7s 5s 18 20 mph 1014.2mb 82f 81f
9:50pm 3.5ft 7s 5s 18 20 mph 1014.1mb 82f 81f
8:50pm 3ft 7s 5s 16 20 mph 1013.6mb 82f 81f
7:50pm 3.5ft 9s 5s 16 18 mph 1013.1mb 82f 81f
6:50pm 3.5ft 7s 5s 13 18 mph 1012.7mb 82f 81f
5:50pm 3.5ft 7s 5s 13 16 mph 1012.3mb 82f 80f
4:50pm 3.5ft 7s 5s 11 16 mph 1012.2mb 82f 80f
3:50pm 4ft 8s 5s 11 13 mph 1012.3mb 82f 80f
2:50pm 4ft 6s 5s 11 13 mph 1012.8mb 82f 78f
1:50pm 4.5ft 7s 5s 11 16 mph 1013.2mb 82f 78f
12:50pm 5ft 7s 5s 16 20 mph 1013.6mb 82f 77f
11:50am 5ft 4s 5s 20 22 mph 1013.8mb 82f 76f
10:50am 6ft 7s 5s 18 20 mph 1013.8mb 81f 75f
9:50am 5.5ft 7s 5s 20 25 mph 1013.2mb 82f 74f
8:50am 6ft 7s 5s 18 22 mph 1012.7mb 82f 75f
7:50am 6ft 7s 5s 18 22 mph 1011.8mb 82f 74f
6:50am 6ft 7s 5s 20 25 mph 1011mb 82f 75f
5:50am 7ft 8s 6s 22 25 mph 1010mb 82f 75f
4:50am 7ft 8s 6s 20 22 mph 1009.8mb 82f 74f
3:50am 6.5ft 8s 5s 22 27 mph 1009.5mb 82f 74f
2:50am 7ft 8s 6s 22 27 mph 1009.4mb 82f 75f
1:50am 7ft 7s 6s 22 29 mph 1009.6mb 82f 76f
12:50am 8ft 8s 6s 22 27 mph 1009.9mb 82f 77f
Sat 09/20 11:50pm 8ft 8s 6s 22 27 mph 1010.3mb 82f 78f
10:50pm 7.5ft 8s 5s 27 31 mph 1010.7mb 82f 75f
9:50pm 8ft 8s 6s 29 34 mph 1010.5mb 82f 77f
8:50pm 8ft 7s 6s 25 29 mph 1010.9mb 82f 77f
7:50pm 8ft 8s 6s 31 38 mph 1010.7mb 82f 75f
6:50pm 8ft 7s 5s 29 34 mph 1011.2mb 82f 73f
5:50pm 8ft 8s 6s 31 38 mph 1011mb 82f 74f
4:50pm 8ft 7s 6s 25 31 mph 1011.7mb 82f 77f
3:50pm 8ft 7s 5s 20 25 mph 1012.4mb 82f 76f
2:50pm 8ft 7s 5s 20 25 mph 1013.2mb 82f 78f
1:50pm 7ft 7s 5s 20 25 mph 1014.1mb 82f 77f
12:50pm 7ft 7s 5s 25 29 mph 1014.3mb 82f 78f
11:50am 7ft 7s 5s 29 43 mph 1014.7mb 82f 78f
10:50am 7ft 7s 5s 25 31 mph 1015.1mb 82f 80f
9:50am 7.5ft 7s 5s 22 27 mph 1015mb 82f 80f
8:50am 8ft 8s 6s 22 29 mph 1015.1mb 82f 81f
7:50am 7ft 7s 6s 22 27 mph 1015.2mb 82f 80f
6:50am 7ft 8s 6s 18 29 mph 1015.5mb 82f 76f
5:50am 7ft 8s 5s 22 29 mph 1016.1mb 82f 72f
4:50am 7.5ft 8s 6s 20 22 mph 1015.7mb 82f 76f
3:50am 7.5ft 8s 6s 22 29 mph 1016mb 82f 75f
2:50am 7ft 8s 5s 25 29 mph 1016.4mb 82f 75f
1:50am 7ft 7s 5s 25 34 mph 1017.1mb 82f 77f
12:50am 7.5ft 6s 5s 25 29 mph 1017.6mb 82f 76f
Fri 09/19 11:50pm 7ft 6s 5s 29 36 mph 1017.4mb 82f 77f
10:50pm 6ft 6s 5s 27 34 mph 1017.5mb 82f 78f
9:50pm 6ft 6s 5s 29 34 mph 1017.1mb 82f 77f
8:50pm 5.5ft 7s 5s 20 22 mph 1016.8mb 82f 79f
7:50pm 5.5ft 6s 5s 13 16 mph 1017.4mb 82f 79f
6:50pm 5.5ft 6s 5s 18 20 mph 1017.1mb 82f 79f
5:50pm 6ft 6s 5s 20 22 mph 1016.8mb 82f 79f
4:50pm 6ft 6s 5s 18 22 mph 1016.7mb 82f 79f
3:50pm 6ft 6s 5s 22 25 mph 1016.5mb 82f 78f
2:50pm 5ft 6s 4s 27 31 mph 1016.6mb 82f 78f
1:50pm 4.5ft 6s 4s 25 29 mph 1017.1mb 82f 77f
12:50pm 4.5ft 6s 5s 22 25 mph 1017.4mb 82f 76f
11:50am 4.5ft 6s 5s 18 22 mph 1018mb 82f 73f
10:50am 5ft 6s 4s 29 34 mph 1017.4mb 82f 74f
9:50am 4.5ft 6s 5s 16 27 mph 1016.9mb 82f 80f
8:50am 4ft 6s 5s 9 13 mph 1016.6mb 83f 76f
7:50am 4.5ft 6s 5s 13 16 mph 1016.2mb 83f 80f
6:50am 4ft 6s 5s 13 18 mph 1015.7mb 83f 80f
5:50am 4ft 6s 5s 13 18 mph 1015mb 83f 80f
4:50am 3.5ft 6s 5s 16 18 mph 1014.4mb 83f 79f
3:50am 3.5ft 7s 6s 9 11 mph 1014.5mb 83f 80f
2:50am 3.5ft 6s 5s 7 9 mph 1014.7mb 83f 81f
1:50am 3ft 9s 5s 7 9 mph 1014.7mb 83f 81f
12:50am 3ft 11s 5s 9 11 mph 1014.7mb 83f 80f
Thu 09/18 11:50pm 3ft 10s 5s 9 11 mph 1015mb 83f 81f
10:50pm 2.5ft 9s 5s 13 16 mph 1014.8mb 83f 80f
9:50pm 2.5ft 9s 6s 11 16 mph 1014.6mb 83f 80f
8:50pm 3ft 10s 6s 11 13 mph 1014.2mb 83f 81f
7:50pm 3ft 10s 6s 9 13 mph 1013.6mb 83f 81f
6:50pm 2.5ft 10s 6s 11 13 mph 1013.2mb 83f 80f
5:50pm 3ft 12s 7s 9 11 mph 1013mb 84f 80f
4:50pm 3ft 10s 7s 9 11 mph 1012.8mb 84f 80f
3:50pm 3ft 10s 7s 7 9 mph 1012.8mb 84f 80f
2:50pm 3ft 11s 7s 7 9 mph 1013.3mb 84f 80f
1:50pm 3ft 10s 7s 7 9 mph 1013.8mb 83f 80f